Meteo Giornale » Osservazioni meteo Italia » Brescia-Montichiari

ore: 07:50 - Osservazioni Meteo Brescia-Montichiari
Lat. 45° 24' N Lon. 10° 18' E Alt. 104 metri s.l.m.

sereno Europe/Rome

20 °C

Sereno

Temp. 24 Ore

0 °C

27 °C

Nord-Est

13 Km/h

Dew point 10 °C

Umidità 52 %

Visibilità  10 Km

Il sole sorge alle ore 05:56

Il sole tramonta alle ore 20:54

Data e Ora Cielo e Fenomeni T °C DP °C Um. % Pres. hPa Vis. km Vento km/h
Oggi h: 07:50 sereno Sereno 20 10 52 1010 10 NE 13
Oggi h: 06:50 sereno Sereno 17 12 72 1009 10 N 3.7
Oggi h: 04:50 sereno Sereno 17 13 77 1009 10 N/NE 7.4
Oggi h: 03:50 sereno Sereno 18 13 72 1009 10 N 0
Oggi h: 02:50 sereno Sereno 18 14 77 1008 10 N 3.7
Oggi h: 01:50 sereno Sereno 19 14 72 1008 10 N 7.4
Oggi h: 00:50 sereno Sereno 19 14 72 1008 10 N 5.5
Ieri h: 23:50 sereno Sereno 20 14 68 1007 10 N 0
Ieri h: 22:50 nuvoloso Nuvoloso 21 13 60 1006 10 N 3.7
Ieri h: 21:50 nuvoloso Nuvoloso 22 12 53 1006 10 E/NE 9.3
Ieri h: 20:50 nuvoloso Nuvoloso 24 11 43 1005 10 E/NE 13
Ieri h: 19:50 nuvoloso Nuvoloso 25 12 44 1004 10 NE 13
Ieri h: 18:50 nuvoloso Nuvoloso 25 14 50 1004 10 E 11.1
Ieri h: 17:50 nuvoloso Nuvoloso 26 12 41 1004 10 O 9.3
Ieri h: 16:50 nuvoloso Nuvoloso 26 11 39 1004 10 O 11.1
Ieri h: 15:50 nuvoloso Nuvoloso 26 12 41 1004 10 O 14.8
Ieri h: 15:07 nuvoloso Nuvoloso 26 10 36 1004 10 O 22.2
Ieri h: 14:50 sereno Sereno 0 0 35 0 10 N 0
Ieri h: 13:50 sereno Sereno 27 11 36 1004 10 O 20.3
Ieri h: 12:50 sereno Sereno 26 11 39 1004 10 O 25.9
Ieri h: 11:50 sereno Sereno 24 12 47 1004 10 O 20.3
Ieri h: 10:50 sereno Sereno 22 12 53 1005 10 O 18.5
Ieri h: 09:50 nuvoloso Nuvoloso 21 12 56 1005 10 O/SO 14.8
Ieri h: 08:50 sereno Sereno 20 12 59 1005 10 O/SO 7.4